sensor_id;sensor_type;location;lat;lon;timestamp;P1;durP1;ratioP1;P2;durP2;ratioP2
16837;SDS011;19510;54.486;9.046;2023-02-28T00:01:20;4.80;;;2.30;;
16837;SDS011;19510;54.486;9.046;2023-02-28T00:03:48;3.77;;;2.30;;
16837;SDS011;19510;54.486;9.046;2023-02-28T00:06:13;3.67;;;2.00;;
16837;SDS011;19510;54.486;9.046;2023-02-28T00:08:39;3.23;;;1.97;;
16837;SDS011;19510;54.486;9.046;2023-02-28T00:11:09;5.03;;;2.73;;
16837;SDS011;19510;54.486;9.046;2023-02-28T00:13:38;5.73;;;2.60;;
16837;SDS011;19510;54.486;9.046;2023-02-28T00:16:08;12.23;;;2.47;;
16837;SDS011;19510;54.486;9.046;2023-02-28T00:18:39;5.07;;;2.97;;
16837;SDS011;19510;54.486;9.046;2023-02-28T00:21:07;4.33;;;2.30;;
16837;SDS011;19510;54.486;9.046;2023-02-28T00:23:36;4.73;;;2.50;;
16837;SDS011;19510;54.486;9.046;2023-02-28T00:26:02;6.23;;;2.23;;
16837;SDS011;19510;54.486;9.046;2023-02-28T06:01:48;12.87;;;6.23;;
16837;SDS011;19510;54.486;9.046;2023-02-28T06:04:16;14.60;;;6.80;;
16837;SDS011;19510;54.486;9.046;2023-02-28T06:06:49;11.53;;;6.57;;
16837;SDS011;19510;54.486;9.046;2023-02-28T06:09:37;14.33;;;6.43;;
16837;SDS011;19510;54.486;9.046;2023-02-28T06:12:33;14.73;;;6.80;;
16837;SDS011;19510;54.486;9.046;2023-02-28T06:38:43;14.70;;;9.47;;
16837;SDS011;19510;54.486;9.046;2023-02-28T06:41:09;24.83;;;9.27;;
16837;SDS011;19510;54.486;9.046;2023-02-28T06:43:41;17.27;;;7.87;;
16837;SDS011;19510;54.486;9.046;2023-02-28T06:46:11;15.27;;;8.10;;
16837;SDS011;19510;54.486;9.046;2023-02-28T06:48:38;26.43;;;8.73;;
16837;SDS011;19510;54.486;9.046;2023-02-28T06:51:05;21.50;;;9.73;;
16837;SDS011;19510;54.486;9.046;2023-02-28T06:53:36;19.07;;;8.77;;
16837;SDS011;19510;54.486;9.046;2023-02-28T06:56:05;16.23;;;8.83;;
16837;SDS011;19510;54.486;9.046;2023-02-28T06:58:32;16.87;;;8.67;;
16837;SDS011;19510;54.486;9.046;2023-02-28T07:01:01;17.40;;;8.50;;
16837;SDS011;19510;54.486;9.046;2023-02-28T07:03:27;17.60;;;8.00;;
16837;SDS011;19510;54.486;9.046;2023-02-28T07:05:55;18.97;;;8.77;;
16837;SDS011;19510;54.486;9.046;2023-02-28T07:08:24;32.50;;;14.67;;
16837;SDS011;19510;54.486;9.046;2023-02-28T07:10:56;95.43;;;43.10;;
16837;SDS011;19510;54.486;9.046;2023-02-28T07:13:23;70.00;;;34.50;;
16837;SDS011;19510;54.486;9.046;2023-02-28T07:15:53;61.27;;;30.90;;
16837;SDS011;19510;54.486;9.046;2023-02-28T07:18:25;59.37;;;29.23;;
16837;SDS011;19510;54.486;9.046;2023-02-28T07:20:51;51.27;;;23.90;;
16837;SDS011;19510;54.486;9.046;2023-02-28T07:23:21;29.37;;;15.30;;
16837;SDS011;19510;54.486;9.046;2023-02-28T07:25:47;28.90;;;14.53;;
16837;SDS011;19510;54.486;9.046;2023-02-28T07:28:15;28.63;;;13.93;;
16837;SDS011;19510;54.486;9.046;2023-02-28T07:30:41;22.20;;;10.70;;
16837;SDS011;19510;54.486;9.046;2023-02-28T07:33:07;17.37;;;9.10;;
16837;SDS011;19510;54.486;9.046;2023-02-28T07:35:33;19.30;;;10.30;;
16837;SDS011;19510;54.486;9.046;2023-02-28T07:38:02;24.00;;;10.70;;
16837;SDS011;19510;54.486;9.046;2023-02-28T07:40:28;17.17;;;9.10;;
16837;SDS011;19510;54.486;9.046;2023-02-28T07:42:54;21.90;;;10.27;;
16837;SDS011;19510;54.486;9.046;2023-02-28T07:45:22;17.93;;;9.67;;
16837;SDS011;19510;54.486;9.046;2023-02-28T07:47:48;18.47;;;10.00;;
16837;SDS011;19510;54.486;9.046;2023-02-28T07:50:16;16.90;;;9.17;;
16837;SDS011;19510;54.486;9.046;2023-02-28T07:52:42;17.70;;;8.30;;
16837;SDS011;19510;54.486;9.046;2023-02-28T07:55:10;17.50;;;8.80;;
16837;SDS011;19510;54.486;9.046;2023-02-28T07:57:36;15.47;;;8.47;;
16837;SDS011;19510;54.486;9.046;2023-02-28T08:00:03;16.43;;;8.77;;
16837;SDS011;19510;54.486;9.046;2023-02-28T08:02:33;17.73;;;8.97;;
16837;SDS011;19510;54.486;9.046;2023-02-28T08:04:59;18.57;;;8.67;;
16837;SDS011;19510;54.486;9.046;2023-02-28T08:07:25;19.17;;;9.10;;
16837;SDS011;19510;54.486;9.046;2023-02-28T08:09:52;21.20;;;8.60;;
16837;SDS011;19510;54.486;9.046;2023-02-28T08:12:18;16.33;;;7.70;;
16837;SDS011;19510;54.486;9.046;2023-02-28T08:14:44;21.70;;;9.23;;
16837;SDS011;19510;54.486;9.046;2023-02-28T08:17:10;19.10;;;8.87;;
16837;SDS011;19510;54.486;9.046;2023-02-28T08:19:38;25.67;;;8.93;;
16837;SDS011;19510;54.486;9.046;2023-02-28T08:22:04;18.93;;;8.37;;
16837;SDS011;19510;54.486;9.046;2023-02-28T08:24:30;18.60;;;8.50;;
16837;SDS011;19510;54.486;9.046;2023-02-28T08:26:56;15.50;;;8.23;;
16837;SDS011;19510;54.486;9.046;2023-02-28T08:29:21;18.37;;;7.87;;
16837;SDS011;19510;54.486;9.046;2023-02-28T08:31:50;15.33;;;7.70;;
16837;SDS011;19510;54.486;9.046;2023-02-28T08:37:38;14.67;;;7.70;;
16837;SDS011;19510;54.486;9.046;2023-02-28T08:40:04;16.33;;;8.20;;
16837;SDS011;19510;54.486;9.046;2023-02-28T08:42:30;16.33;;;7.53;;
16837;SDS011;19510;54.486;9.046;2023-02-28T08:44:56;18.70;;;8.63;;
16837;SDS011;19510;54.486;9.046;2023-02-28T08:47:22;13.73;;;7.13;;
16837;SDS011;19510;54.486;9.046;2023-02-28T08:49:48;19.50;;;7.97;;
16837;SDS011;19510;54.486;9.046;2023-02-28T08:52:14;16.93;;;7.53;;
16837;SDS011;19510;54.486;9.046;2023-02-28T08:54:44;14.97;;;7.40;;
16837;SDS011;19510;54.486;9.046;2023-02-28T08:57:12;14.73;;;7.50;;
16837;SDS011;19510;54.486;9.046;2023-02-28T08:59:38;17.23;;;7.90;;
16837;SDS011;19510;54.486;9.046;2023-02-28T09:02:05;22.17;;;8.73;;
16837;SDS011;19510;54.486;9.046;2023-02-28T09:04:33;16.23;;;8.40;;
16837;SDS011;19510;54.486;9.046;2023-02-28T09:06:59;16.67;;;7.77;;
16837;SDS011;19510;54.486;9.046;2023-02-28T09:09:25;14.33;;;7.70;;
16837;SDS011;19510;54.486;9.046;2023-02-28T09:11:50;17.93;;;8.37;;
16837;SDS011;19510;54.486;9.046;2023-02-28T09:14:16;18.73;;;8.50;;
16837;SDS011;19510;54.486;9.046;2023-02-28T09:16:44;17.63;;;8.30;;
16837;SDS011;19510;54.486;9.046;2023-02-28T09:19:12;16.97;;;8.00;;
16837;SDS011;19510;54.486;9.046;2023-02-28T09:21:38;19.40;;;8.90;;
16837;SDS011;19510;54.486;9.046;2023-02-28T09:24:04;14.80;;;7.33;;
16837;SDS011;19510;54.486;9.046;2023-02-28T09:26:30;18.87;;;8.17;;
16837;SDS011;19510;54.486;9.046;2023-02-28T09:28:56;13.47;;;7.53;;
16837;SDS011;19510;54.486;9.046;2023-02-28T09:31:24;15.20;;;8.37;;
16837;SDS011;19510;54.486;9.046;2023-02-28T09:33:53;17.47;;;8.00;;
16837;SDS011;19510;54.486;9.046;2023-02-28T09:36:23;17.47;;;8.10;;
16837;SDS011;19510;54.486;9.046;2023-02-28T09:38:50;16.17;;;8.57;;
16837;SDS011;19510;54.486;9.046;2023-02-28T09:41:19;16.40;;;8.07;;
16837;SDS011;19510;54.486;9.046;2023-02-28T09:43:48;15.90;;;8.23;;
16837;SDS011;19510;54.486;9.046;2023-02-28T09:46:25;14.40;;;7.50;;
16837;SDS011;19510;54.486;9.046;2023-02-28T09:48:58;13.77;;;7.07;;
16837;SDS011;19510;54.486;9.046;2023-02-28T09:54:09;15.23;;;7.07;;
16837;SDS011;19510;54.486;9.046;2023-02-28T09:56:44;17.57;;;7.43;;
16837;SDS011;19510;54.486;9.046;2023-02-28T10:05:09;11.40;;;5.17;;
16837;SDS011;19510;54.486;9.046;2023-02-28T10:07:53;10.43;;;5.20;;
16837;SDS011;19510;54.486;9.046;2023-02-28T10:10:42;10.60;;;5.60;;
16837;SDS011;19510;54.486;9.046;2023-02-28T10:13:22;11.87;;;5.50;;
16837;SDS011;19510;54.486;9.046;2023-02-28T10:16:15;11.97;;;5.67;;
16837;SDS011;19510;54.486;9.046;2023-02-28T10:18:54;13.20;;;6.97;;
16837;SDS011;19510;54.486;9.046;2023-02-28T10:21:31;11.77;;;5.60;;
16837;SDS011;19510;54.486;9.046;2023-02-28T10:24:02;13.63;;;6.83;;
16837;SDS011;19510;54.486;9.046;2023-02-28T10:26:36;15.30;;;5.87;;
16837;SDS011;19510;54.486;9.046;2023-02-28T10:29:08;16.70;;;7.27;;
16837;SDS011;19510;54.486;9.046;2023-02-28T10:31:37;16.10;;;7.37;;
16837;SDS011;19510;54.486;9.046;2023-02-28T10:34:07;12.57;;;6.80;;
16837;SDS011;19510;54.486;9.046;2023-02-28T10:36:37;13.80;;;6.13;;
16837;SDS011;19510;54.486;9.046;2023-02-28T10:39:28;10.30;;;5.40;;
16837;SDS011;19510;54.486;9.046;2023-02-28T10:42:02;15.10;;;6.23;;
16837;SDS011;19510;54.486;9.046;2023-02-28T10:44:43;13.80;;;6.40;;
16837;SDS011;19510;54.486;9.046;2023-02-28T10:47:15;12.93;;;5.90;;
16837;SDS011;19510;54.486;9.046;2023-02-28T10:49:49;12.63;;;5.50;;
16837;SDS011;19510;54.486;9.046;2023-02-28T10:52:33;13.07;;;4.97;;
16837;SDS011;19510;54.486;9.046;2023-02-28T10:55:15;9.93;;;5.00;;
16837;SDS011;19510;54.486;9.046;2023-02-28T10:57:50;11.27;;;5.20;;
16837;SDS011;19510;54.486;9.046;2023-02-28T11:00:18;15.20;;;5.87;;
16837;SDS011;19510;54.486;9.046;2023-02-28T11:02:49;13.70;;;6.37;;
16837;SDS011;19510;54.486;9.046;2023-02-28T11:07:57;13.30;;;5.23;;
16837;SDS011;19510;54.486;9.046;2023-02-28T11:10:53;16.73;;;5.87;;
16837;SDS011;19510;54.486;9.046;2023-02-28T11:13:24;10.80;;;5.20;;
16837;SDS011;19510;54.486;9.046;2023-02-28T11:15:55;12.30;;;5.80;;
16837;SDS011;19510;54.486;9.046;2023-02-28T11:18:27;12.13;;;5.80;;
16837;SDS011;19510;54.486;9.046;2023-02-28T11:21:15;11.93;;;5.67;;
16837;SDS011;19510;54.486;9.046;2023-02-28T11:23:51;12.47;;;4.97;;
16837;SDS011;19510;54.486;9.046;2023-02-28T11:26:37;9.77;;;5.30;;
16837;SDS011;19510;54.486;9.046;2023-02-28T11:29:22;10.60;;;5.20;;
16837;SDS011;19510;54.486;9.046;2023-02-28T11:34:43;10.63;;;5.67;;
16837;SDS011;19510;54.486;9.046;2023-02-28T11:37:15;8.83;;;4.63;;
16837;SDS011;19510;54.486;9.046;2023-02-28T11:39:43;10.77;;;4.83;;
16837;SDS011;19510;54.486;9.046;2023-02-28T11:55:27;10.50;;;4.70;;
16837;SDS011;19510;54.486;9.046;2023-02-28T12:06:28;8.93;;;5.10;;
16837;SDS011;19510;54.486;9.046;2023-02-28T12:09:08;12.10;;;5.30;;
16837;SDS011;19510;54.486;9.046;2023-02-28T12:12:15;9.88;;;5.38;;
16837;SDS011;19510;54.486;9.046;2023-02-28T12:28:01;8.32;;;4.65;;
16837;SDS011;19510;54.486;9.046;2023-02-28T12:30:34;9.50;;;4.88;;
16837;SDS011;19510;54.486;9.046;2023-02-28T12:33:14;11.38;;;4.93;;
16837;SDS011;19510;54.486;9.046;2023-02-28T12:35:58;9.73;;;4.88;;
16837;SDS011;19510;54.486;9.046;2023-02-28T12:38:27;8.88;;;4.78;;
16837;SDS011;19510;54.486;9.046;2023-02-28T12:41:11;8.82;;;4.85;;
16837;SDS011;19510;54.486;9.046;2023-02-28T12:43:44;8.40;;;4.88;;
16837;SDS011;19510;54.486;9.046;2023-02-28T12:48:55;11.88;;;5.70;;
16837;SDS011;19510;54.486;9.046;2023-02-28T12:51:22;7.93;;;4.90;;
16837;SDS011;19510;54.486;9.046;2023-02-28T12:53:54;8.43;;;5.30;;
16837;SDS011;19510;54.486;9.046;2023-02-28T12:59:25;9.05;;;5.45;;
16837;SDS011;19510;54.486;9.046;2023-02-28T13:10:43;7.72;;;4.90;;
16837;SDS011;19510;54.486;9.046;2023-02-28T13:13:16;10.95;;;5.53;;
16837;SDS011;19510;54.486;9.046;2023-02-28T13:16:00;15.93;;;5.82;;
16837;SDS011;19510;54.486;9.046;2023-02-28T13:18:31;10.32;;;5.88;;
16837;SDS011;19510;54.486;9.046;2023-02-28T13:21:21;12.68;;;5.40;;
16837;SDS011;19510;54.486;9.046;2023-02-28T13:34:27;12.27;;;5.00;;
16837;SDS011;19510;54.486;9.046;2023-02-28T13:37:21;12.40;;;6.13;;
16837;SDS011;19510;54.486;9.046;2023-02-28T13:40:06;10.02;;;5.35;;
16837;SDS011;19510;54.486;9.046;2023-02-28T13:42:37;10.70;;;5.53;;
16837;SDS011;19510;54.486;9.046;2023-02-28T13:45:23;13.88;;;6.00;;
16837;SDS011;19510;54.486;9.046;2023-02-28T13:47:59;12.75;;;5.55;;
16837;SDS011;19510;54.486;9.046;2023-02-28T14:06:36;11.98;;;5.45;;
16837;SDS011;19510;54.486;9.046;2023-02-28T14:11:50;11.75;;;5.43;;
16837;SDS011;19510;54.486;9.046;2023-02-28T14:17:00;9.63;;;5.30;;
16837;SDS011;19510;54.486;9.046;2023-02-28T14:19:32;8.38;;;5.22;;
16837;SDS011;19510;54.486;9.046;2023-02-28T14:27:50;9.18;;;5.22;;
16837;SDS011;19510;54.486;9.046;2023-02-28T14:36:04;9.40;;;4.82;;
16837;SDS011;19510;54.486;9.046;2023-02-28T14:38:32;9.88;;;5.95;;
16837;SDS011;19510;54.486;9.046;2023-02-28T14:41:29;12.05;;;5.55;;
16837;SDS011;19510;54.486;9.046;2023-02-28T14:43:58;12.25;;;5.90;;
16837;SDS011;19510;54.486;9.046;2023-02-28T14:46:43;12.68;;;6.70;;
16837;SDS011;19510;54.486;9.046;2023-02-28T14:49:16;13.00;;;6.38;;
16837;SDS011;19510;54.486;9.046;2023-02-28T14:51:42;11.82;;;5.97;;
16837;SDS011;19510;54.486;9.046;2023-02-28T14:54:12;11.95;;;6.13;;
16837;SDS011;19510;54.486;9.046;2023-02-28T14:56:40;14.25;;;6.78;;
16837;SDS011;19510;54.486;9.046;2023-02-28T14:59:21;11.07;;;5.93;;
16837;SDS011;19510;54.486;9.046;2023-02-28T15:02:18;11.43;;;6.35;;
16837;SDS011;19510;54.486;9.046;2023-02-28T15:04:55;15.05;;;6.05;;
16837;SDS011;19510;54.486;9.046;2023-02-28T15:07:22;11.30;;;5.72;;
16837;SDS011;19510;54.486;9.046;2023-02-28T15:12:58;12.00;;;5.80;;
16837;SDS011;19510;54.486;9.046;2023-02-28T15:18:14;11.13;;;5.88;;
16837;SDS011;19510;54.486;9.046;2023-02-28T15:20:47;12.27;;;6.25;;
16837;SDS011;19510;54.486;9.046;2023-02-28T15:23:16;11.77;;;5.90;;
16837;SDS011;19510;54.486;9.046;2023-02-28T15:25:43;10.65;;;5.78;;
16837;SDS011;19510;54.486;9.046;2023-02-28T15:28:12;13.73;;;5.75;;
16837;SDS011;19510;54.486;9.046;2023-02-28T15:30:50;10.82;;;5.50;;
16837;SDS011;19510;54.486;9.046;2023-02-28T15:33:27;10.98;;;5.78;;
16837;SDS011;19510;54.486;9.046;2023-02-28T15:36:55;12.27;;;4.88;;
16837;SDS011;19510;54.486;9.046;2023-02-28T15:38:52;14.88;;;5.95;;
16837;SDS011;19510;54.486;9.046;2023-02-28T15:41:30;11.23;;;5.32;;
16837;SDS011;19510;54.486;9.046;2023-02-28T15:47:00;9.75;;;4.90;;
16837;SDS011;19510;54.486;9.046;2023-02-28T15:49:29;12.00;;;5.25;;
16837;SDS011;19510;54.486;9.046;2023-02-28T15:52:04;10.27;;;5.60;;
16837;SDS011;19510;54.486;9.046;2023-02-28T15:54:37;12.05;;;5.38;;
16837;SDS011;19510;54.486;9.046;2023-02-28T15:57:10;16.92;;;6.45;;
16837;SDS011;19510;54.486;9.046;2023-02-28T15:59:54;11.95;;;5.78;;
16837;SDS011;19510;54.486;9.046;2023-02-28T16:02:33;11.30;;;6.18;;
16837;SDS011;19510;54.486;9.046;2023-02-28T16:07:33;13.85;;;6.22;;
16837;SDS011;19510;54.486;9.046;2023-02-28T16:10:00;11.05;;;6.05;;
16837;SDS011;19510;54.486;9.046;2023-02-28T16:12:28;12.02;;;6.07;;
16837;SDS011;19510;54.486;9.046;2023-02-28T16:14:57;14.32;;;7.32;;
16837;SDS011;19510;54.486;9.046;2023-02-28T16:17:26;15.70;;;6.50;;
16837;SDS011;19510;54.486;9.046;2023-02-28T16:20:00;15.00;;;7.05;;
16837;SDS011;19510;54.486;9.046;2023-02-28T16:22:30;12.65;;;6.30;;
16837;SDS011;19510;54.486;9.046;2023-02-28T16:24:56;14.32;;;6.50;;
16837;SDS011;19510;54.486;9.046;2023-02-28T16:27:27;14.47;;;6.47;;
16837;SDS011;19510;54.486;9.046;2023-02-28T16:29:56;13.83;;;6.53;;
16837;SDS011;19510;54.486;9.046;2023-02-28T16:32:22;14.23;;;6.23;;
16837;SDS011;19510;54.486;9.046;2023-02-28T16:34:48;14.80;;;6.73;;
16837;SDS011;19510;54.486;9.046;2023-02-28T16:37:16;12.63;;;6.57;;
16837;SDS011;19510;54.486;9.046;2023-02-28T16:39:43;14.33;;;6.63;;
16837;SDS011;19510;54.486;9.046;2023-02-28T16:42:15;13.93;;;6.90;;
16837;SDS011;19510;54.486;9.046;2023-02-28T16:44:50;14.50;;;6.47;;
16837;SDS011;19510;54.486;9.046;2023-02-28T16:47:17;17.47;;;7.07;;
16837;SDS011;19510;54.486;9.046;2023-02-28T16:49:43;11.93;;;6.20;;
16837;SDS011;19510;54.486;9.046;2023-02-28T16:52:09;14.83;;;6.03;;
16837;SDS011;19510;54.486;9.046;2023-02-28T16:54:37;13.20;;;5.83;;
16837;SDS011;19510;54.486;9.046;2023-02-28T16:57:04;13.60;;;6.43;;
16837;SDS011;19510;54.486;9.046;2023-02-28T16:59:31;13.03;;;6.53;;
16837;SDS011;19510;54.486;9.046;2023-02-28T17:01:57;14.77;;;6.17;;
16837;SDS011;19510;54.486;9.046;2023-02-28T17:04:27;13.93;;;6.67;;
16837;SDS011;19510;54.486;9.046;2023-02-28T17:06:53;11.90;;;6.73;;
16837;SDS011;19510;54.486;9.046;2023-02-28T17:09:19;16.17;;;7.73;;
16837;SDS011;19510;54.486;9.046;2023-02-28T17:11:46;16.33;;;7.10;;
16837;SDS011;19510;54.486;9.046;2023-02-28T17:14:12;14.97;;;6.60;;
16837;SDS011;19510;54.486;9.046;2023-02-28T17:16:39;15.13;;;6.83;;
16837;SDS011;19510;54.486;9.046;2023-02-28T17:19:09;14.13;;;7.17;;
16837;SDS011;19510;54.486;9.046;2023-02-28T17:25:11;15.73;;;7.83;;
16837;SDS011;19510;54.486;9.046;2023-02-28T17:27:37;14.43;;;7.70;;
16837;SDS011;19510;54.486;9.046;2023-02-28T17:30:08;16.63;;;7.10;;
16837;SDS011;19510;54.486;9.046;2023-02-28T17:32:41;14.10;;;6.77;;
16837;SDS011;19510;54.486;9.046;2023-02-28T17:35:07;19.97;;;6.93;;
16837;SDS011;19510;54.486;9.046;2023-02-28T17:37:33;15.43;;;7.37;;
16837;SDS011;19510;54.486;9.046;2023-02-28T17:39:59;15.80;;;7.80;;
16837;SDS011;19510;54.486;9.046;2023-02-28T17:42:24;17.20;;;7.60;;
16837;SDS011;19510;54.486;9.046;2023-02-28T17:44:52;13.00;;;7.20;;
16837;SDS011;19510;54.486;9.046;2023-02-28T17:47:18;15.13;;;6.43;;
16837;SDS011;19510;54.486;9.046;2023-02-28T17:49:44;13.53;;;7.57;;
16837;SDS011;19510;54.486;9.046;2023-02-28T17:52:12;20.03;;;7.90;;
16837;SDS011;19510;54.486;9.046;2023-02-28T17:54:38;16.40;;;7.53;;
16837;SDS011;19510;54.486;9.046;2023-02-28T17:57:04;15.83;;;7.27;;
16837;SDS011;19510;54.486;9.046;2023-02-28T17:59:29;14.10;;;7.63;;
16837;SDS011;19510;54.486;9.046;2023-02-28T18:02:02;14.47;;;7.73;;
16837;SDS011;19510;54.486;9.046;2023-02-28T18:04:28;17.93;;;8.00;;
16837;SDS011;19510;54.486;9.046;2023-02-28T18:06:54;14.20;;;7.27;;
16837;SDS011;19510;54.486;9.046;2023-02-28T18:09:25;15.73;;;8.40;;
16837;SDS011;19510;54.486;9.046;2023-02-28T18:11:52;15.30;;;7.43;;
16837;SDS011;19510;54.486;9.046;2023-02-28T18:14:20;14.17;;;7.27;;
16837;SDS011;19510;54.486;9.046;2023-02-28T18:16:48;15.93;;;7.27;;
16837;SDS011;19510;54.486;9.046;2023-02-28T18:19:15;17.90;;;8.00;;
16837;SDS011;19510;54.486;9.046;2023-02-28T18:21:45;19.33;;;8.90;;
16837;SDS011;19510;54.486;9.046;2023-02-28T18:24:12;18.00;;;8.70;;
16837;SDS011;19510;54.486;9.046;2023-02-28T18:26:40;22.33;;;8.93;;
16837;SDS011;19510;54.486;9.046;2023-02-28T18:29:13;18.50;;;8.80;;
16837;SDS011;19510;54.486;9.046;2023-02-28T18:31:42;17.57;;;8.20;;
16837;SDS011;19510;54.486;9.046;2023-02-28T18:34:08;20.13;;;8.40;;
16837;SDS011;19510;54.486;9.046;2023-02-28T18:36:33;16.07;;;7.73;;
16837;SDS011;19510;54.486;9.046;2023-02-28T18:38:59;17.63;;;7.93;;
16837;SDS011;19510;54.486;9.046;2023-02-28T18:41:25;16.73;;;7.50;;
16837;SDS011;19510;54.486;9.046;2023-02-28T18:43:54;16.50;;;7.77;;
16837;SDS011;19510;54.486;9.046;2023-02-28T18:46:19;16.37;;;8.30;;
16837;SDS011;19510;54.486;9.046;2023-02-28T18:48:46;16.67;;;7.77;;
16837;SDS011;19510;54.486;9.046;2023-02-28T18:51:13;17.20;;;8.00;;
16837;SDS011;19510;54.486;9.046;2023-02-28T18:53:41;21.00;;;8.37;;
16837;SDS011;19510;54.486;9.046;2023-02-28T18:56:09;18.07;;;8.17;;
16837;SDS011;19510;54.486;9.046;2023-02-28T18:58:36;17.33;;;7.93;;
16837;SDS011;19510;54.486;9.046;2023-02-28T19:01:03;18.70;;;8.97;;
16837;SDS011;19510;54.486;9.046;2023-02-28T19:03:37;16.27;;;8.90;;
16837;SDS011;19510;54.486;9.046;2023-02-28T19:06:03;20.80;;;8.97;;
16837;SDS011;19510;54.486;9.046;2023-02-28T19:08:29;21.70;;;8.80;;
16837;SDS011;19510;54.486;9.046;2023-02-28T19:10:55;20.00;;;8.70;;
16837;SDS011;19510;54.486;9.046;2023-02-28T19:13:20;18.37;;;9.80;;
16837;SDS011;19510;54.486;9.046;2023-02-28T19:15:46;19.53;;;9.13;;
16837;SDS011;19510;54.486;9.046;2023-02-28T19:18:12;15.97;;;8.30;;
16837;SDS011;19510;54.486;9.046;2023-02-28T19:20:38;21.90;;;10.23;;
16837;SDS011;19510;54.486;9.046;2023-02-28T19:23:04;24.67;;;10.33;;
16837;SDS011;19510;54.486;9.046;2023-02-28T19:25:29;21.33;;;9.93;;
16837;SDS011;19510;54.486;9.046;2023-02-28T19:27:55;18.90;;;9.57;;
16837;SDS011;19510;54.486;9.046;2023-02-28T19:30:21;21.73;;;10.10;;
16837;SDS011;19510;54.486;9.046;2023-02-28T19:32:47;22.77;;;9.40;;
16837;SDS011;19510;54.486;9.046;2023-02-28T19:35:15;21.43;;;8.80;;
16837;SDS011;19510;54.486;9.046;2023-02-28T19:37:43;21.03;;;9.30;;
16837;SDS011;19510;54.486;9.046;2023-02-28T19:40:09;44.43;;;25.57;;
16837;SDS011;19510;54.486;9.046;2023-02-28T19:42:37;39.77;;;20.60;;
16837;SDS011;19510;54.486;9.046;2023-02-28T19:45:03;27.13;;;12.57;;
16837;SDS011;19510;54.486;9.046;2023-02-28T19:47:29;22.87;;;10.77;;
16837;SDS011;19510;54.486;9.046;2023-02-28T19:49:56;18.43;;;9.67;;
16837;SDS011;19510;54.486;9.046;2023-02-28T19:52:22;20.73;;;9.20;;
16837;SDS011;19510;54.486;9.046;2023-02-28T19:54:48;19.63;;;9.30;;
16837;SDS011;19510;54.486;9.046;2023-02-28T19:57:14;21.20;;;9.57;;
16837;SDS011;19510;54.486;9.046;2023-02-28T19:59:40;20.83;;;9.90;;
16837;SDS011;19510;54.486;9.046;2023-02-28T20:02:14;20.93;;;10.17;;
16837;SDS011;19510;54.486;9.046;2023-02-28T20:04:41;20.17;;;10.33;;
16837;SDS011;19510;54.486;9.046;2023-02-28T20:07:07;18.23;;;9.60;;
16837;SDS011;19510;54.486;9.046;2023-02-28T20:09:35;20.57;;;10.20;;
16837;SDS011;19510;54.486;9.046;2023-02-28T20:12:01;22.33;;;10.33;;
16837;SDS011;19510;54.486;9.046;2023-02-28T20:14:28;16.47;;;8.37;;
16837;SDS011;19510;54.486;9.046;2023-02-28T20:16:54;19.10;;;7.83;;
16837;SDS011;19510;54.486;9.046;2023-02-28T20:19:19;15.10;;;8.33;;
16837;SDS011;19510;54.486;9.046;2023-02-28T20:21:48;16.80;;;8.33;;
16837;SDS011;19510;54.486;9.046;2023-02-28T20:24:14;19.57;;;8.67;;
16837;SDS011;19510;54.486;9.046;2023-02-28T20:26:42;19.77;;;8.50;;
16837;SDS011;19510;54.486;9.046;2023-02-28T20:29:11;13.33;;;7.87;;
16837;SDS011;19510;54.486;9.046;2023-02-28T20:31:37;18.10;;;8.40;;
16837;SDS011;19510;54.486;9.046;2023-02-28T20:34:04;25.17;;;12.13;;
16837;SDS011;19510;54.486;9.046;2023-02-28T20:36:29;23.80;;;12.13;;
16837;SDS011;19510;54.486;9.046;2023-02-28T20:38:55;20.03;;;9.63;;
16837;SDS011;19510;54.486;9.046;2023-02-28T20:41:22;21.30;;;8.97;;
16837;SDS011;19510;54.486;9.046;2023-02-28T20:43:55;15.13;;;8.30;;
16837;SDS011;19510;54.486;9.046;2023-02-28T20:46:23;16.63;;;8.60;;
16837;SDS011;19510;54.486;9.046;2023-02-28T20:48:49;17.03;;;8.63;;
16837;SDS011;19510;54.486;9.046;2023-02-28T20:51:15;13.70;;;7.30;;
16837;SDS011;19510;54.486;9.046;2023-02-28T20:53:41;15.37;;;8.47;;
16837;SDS011;19510;54.486;9.046;2023-02-28T20:56:25;17.67;;;8.87;;
16837;SDS011;19510;54.486;9.046;2023-02-28T20:58:51;13.40;;;7.53;;
16837;SDS011;19510;54.486;9.046;2023-02-28T21:01:21;16.47;;;8.40;;
16837;SDS011;19510;54.486;9.046;2023-02-28T21:06:17;26.17;;;12.27;;
16837;SDS011;19510;54.486;9.046;2023-02-28T21:08:44;33.97;;;15.37;;
16837;SDS011;19510;54.486;9.046;2023-02-28T21:11:14;28.07;;;13.53;;
16837;SDS011;19510;54.486;9.046;2023-02-28T21:13:42;33.87;;;16.53;;
16837;SDS011;19510;54.486;9.046;2023-02-28T21:16:10;34.13;;;14.77;;
16837;SDS011;19510;54.486;9.046;2023-02-28T21:18:41;51.00;;;20.10;;
16837;SDS011;19510;54.486;9.046;2023-02-28T21:21:11;40.37;;;17.23;;
16837;SDS011;19510;54.486;9.046;2023-02-28T21:23:38;33.37;;;16.60;;
16837;SDS011;19510;54.486;9.046;2023-02-28T21:26:08;27.20;;;13.03;;
16837;SDS011;19510;54.486;9.046;2023-02-28T21:28:36;32.27;;;13.23;;
16837;SDS011;19510;54.486;9.046;2023-02-28T21:31:11;27.93;;;11.83;;
16837;SDS011;19510;54.486;9.046;2023-02-28T21:33:40;21.33;;;10.87;;
16837;SDS011;19510;54.486;9.046;2023-02-28T21:36:07;26.03;;;10.87;;
16837;SDS011;19510;54.486;9.046;2023-02-28T21:38:44;18.53;;;9.17;;
16837;SDS011;19510;54.486;9.046;2023-02-28T21:41:13;21.07;;;11.10;;
16837;SDS011;19510;54.486;9.046;2023-02-28T21:43:44;21.13;;;9.87;;
16837;SDS011;19510;54.486;9.046;2023-02-28T21:46:11;15.47;;;8.00;;
16837;SDS011;19510;54.486;9.046;2023-02-28T21:48:39;23.37;;;9.87;;
16837;SDS011;19510;54.486;9.046;2023-02-28T21:51:06;20.10;;;9.60;;
16837;SDS011;19510;54.486;9.046;2023-02-28T21:53:38;16.13;;;8.67;;
16837;SDS011;19510;54.486;9.046;2023-02-28T21:56:06;15.03;;;8.73;;
16837;SDS011;19510;54.486;9.046;2023-02-28T21:58:42;20.23;;;9.33;;
16837;SDS011;19510;54.486;9.046;2023-02-28T22:01:18;21.20;;;9.57;;
16837;SDS011;19510;54.486;9.046;2023-02-28T22:03:46;18.43;;;8.33;;
16837;SDS011;19510;54.486;9.046;2023-02-28T22:08:47;17.80;;;8.73;;
16837;SDS011;19510;54.486;9.046;2023-02-28T22:11:16;19.13;;;8.63;;
16837;SDS011;19510;54.486;9.046;2023-02-28T22:13:43;16.63;;;8.87;;
16837;SDS011;19510;54.486;9.046;2023-02-28T22:16:11;20.37;;;9.20;;
16837;SDS011;19510;54.486;9.046;2023-02-28T22:18:39;20.27;;;9.60;;
16837;SDS011;19510;54.486;9.046;2023-02-28T22:21:06;21.10;;;9.03;;
16837;SDS011;19510;54.486;9.046;2023-02-28T22:23:33;17.17;;;8.40;;
16837;SDS011;19510;54.486;9.046;2023-02-28T22:26:00;17.63;;;8.50;;
16837;SDS011;19510;54.486;9.046;2023-02-28T22:28:27;19.27;;;8.67;;
16837;SDS011;19510;54.486;9.046;2023-02-28T22:30:54;18.10;;;9.03;;
16837;SDS011;19510;54.486;9.046;2023-02-28T22:33:20;22.87;;;9.50;;
16837;SDS011;19510;54.486;9.046;2023-02-28T22:35:47;21.07;;;10.17;;
16837;SDS011;19510;54.486;9.046;2023-02-28T22:38:13;19.57;;;10.03;;
16837;SDS011;19510;54.486;9.046;2023-02-28T22:40:41;17.00;;;8.63;;
16837;SDS011;19510;54.486;9.046;2023-02-28T22:43:08;16.57;;;8.40;;
16837;SDS011;19510;54.486;9.046;2023-02-28T22:45:35;18.33;;;8.80;;
16837;SDS011;19510;54.486;9.046;2023-02-28T22:48:04;17.87;;;9.47;;
16837;SDS011;19510;54.486;9.046;2023-02-28T22:50:31;19.97;;;9.50;;
16837;SDS011;19510;54.486;9.046;2023-02-28T22:52:57;20.57;;;9.37;;
16837;SDS011;19510;54.486;9.046;2023-02-28T22:55:23;20.00;;;9.20;;
16837;SDS011;19510;54.486;9.046;2023-02-28T22:57:49;17.70;;;8.67;;